sensor_id;sensor_type;location;lat;lon;timestamp;pressure;altitude;pressure_sealevel;temperature;humidity
12949;BME280;6539;49.476;8.484;2023-04-19T00:02:10;101244.84;;;13.65;58.97
12949;BME280;6539;49.476;8.484;2023-04-19T00:04:35;101243.22;;;13.67;58.90
12949;BME280;6539;49.476;8.484;2023-04-19T00:07:03;101247.19;;;13.66;58.70
12949;BME280;6539;49.476;8.484;2023-04-19T00:09:29;101240.13;;;13.62;58.43
12949;BME280;6539;49.476;8.484;2023-04-19T00:11:55;101248.44;;;13.58;58.94
12949;BME280;6539;49.476;8.484;2023-04-19T00:14:21;101242.50;;;13.60;58.89
12949;BME280;6539;49.476;8.484;2023-04-19T00:16:46;101241.31;;;13.61;58.87
12949;BME280;6539;49.476;8.484;2023-04-19T00:19:12;101235.78;;;13.61;58.91
12949;BME280;6539;49.476;8.484;2023-04-19T00:21:40;101238.16;;;13.62;59.06
12949;BME280;6539;49.476;8.484;2023-04-19T00:24:12;101239.34;;;13.61;58.73
12949;BME280;6539;49.476;8.484;2023-04-19T00:26:40;101231.47;;;13.60;59.10
12949;BME280;6539;49.476;8.484;2023-04-19T00:29:09;101231.47;;;13.60;59.12
12949;BME280;6539;49.476;8.484;2023-04-19T00:31:35;101235.44;;;13.55;59.29
12949;BME280;6539;49.476;8.484;2023-04-19T00:34:04;101228.34;;;13.54;59.19
12949;BME280;6539;49.476;8.484;2023-04-19T00:36:32;101228.72;;;13.56;59.02
12949;BME280;6539;49.476;8.484;2023-04-19T00:38:58;101237.81;;;13.53;59.07
12949;BME280;6539;49.476;8.484;2023-04-19T00:41:23;101234.66;;;13.55;59.26
12949;BME280;6539;49.476;8.484;2023-04-19T00:43:49;101228.72;;;13.56;59.31
12949;BME280;6539;49.476;8.484;2023-04-19T00:46:17;101229.91;;;13.55;59.39
12949;BME280;6539;49.476;8.484;2023-04-19T00:48:47;101221.22;;;13.57;59.33
12949;BME280;6539;49.476;8.484;2023-04-19T00:51:16;101231.06;;;13.61;58.98
12949;BME280;6539;49.476;8.484;2023-04-19T00:53:42;101225.56;;;13.58;59.21
12949;BME280;6539;49.476;8.484;2023-04-19T00:56:12;101235.84;;;13.50;59.47
12949;BME280;6539;49.476;8.484;2023-04-19T00:58:40;101231.09;;;13.54;59.51
12949;BME280;6539;49.476;8.484;2023-04-19T01:01:06;101236.22;;;13.56;59.34
12949;BME280;6539;49.476;8.484;2023-04-19T01:03:32;101239.78;;;13.53;59.23
12949;BME280;6539;49.476;8.484;2023-04-19T01:05:59;101224.81;;;13.50;59.17
12949;BME280;6539;49.476;8.484;2023-04-19T01:08:27;101222.44;;;13.52;59.45
12949;BME280;6539;49.476;8.484;2023-04-19T01:10:57;101226.00;;;13.53;59.60
12949;BME280;6539;49.476;8.484;2023-04-19T01:13:25;101224.00;;;13.57;59.50
12949;BME280;6539;49.476;8.484;2023-04-19T01:15:53;101215.69;;;13.60;59.55
12949;BME280;6539;49.476;8.484;2023-04-19T01:18:21;101217.25;;;13.61;59.10
12949;BME280;6539;49.476;8.484;2023-04-19T01:20:48;101212.94;;;13.57;58.99
12949;BME280;6539;49.476;8.484;2023-04-19T01:23:14;101220.06;;;13.54;59.19
12949;BME280;6539;49.476;8.484;2023-04-19T01:25:49;101204.34;;;13.51;58.99
12949;BME280;6539;49.476;8.484;2023-04-19T01:28:15;101206.72;;;13.49;59.01
12949;BME280;6539;49.476;8.484;2023-04-19T01:30:42;101202.75;;;13.50;58.92
12949;BME280;6539;49.476;8.484;2023-04-19T01:33:10;101205.88;;;13.52;58.98
12949;BME280;6539;49.476;8.484;2023-04-19T01:35:38;101203.59;;;13.47;59.11
12949;BME280;6539;49.476;8.484;2023-04-19T01:38:04;101200.44;;;13.45;58.89
12949;BME280;6539;49.476;8.484;2023-04-19T01:40:30;101196.84;;;13.48;58.81
12949;BME280;6539;49.476;8.484;2023-04-19T01:42:58;101196.47;;;13.46;58.87
12949;BME280;6539;49.476;8.484;2023-04-19T01:45:23;101191.38;;;13.45;59.33
12949;BME280;6539;49.476;8.484;2023-04-19T01:47:50;101188.97;;;13.50;59.27
12949;BME280;6539;49.476;8.484;2023-04-19T01:50:19;101186.25;;;13.47;58.86
12949;BME280;6539;49.476;8.484;2023-04-19T01:52:44;101183.09;;;13.45;58.87
12949;BME280;6539;49.476;8.484;2023-04-19T01:55:10;101190.97;;;13.46;58.93
12949;BME280;6539;49.476;8.484;2023-04-19T01:57:38;101183.06;;;13.48;58.90
12949;BME280;6539;49.476;8.484;2023-04-19T02:00:05;101180.69;;;13.50;58.71
12949;BME280;6539;49.476;8.484;2023-04-19T02:02:33;101177.94;;;13.50;58.96
12949;BME280;6539;49.476;8.484;2023-04-19T02:05:07;101176.75;;;13.51;59.11
12949;BME280;6539;49.476;8.484;2023-04-19T02:07:35;101169.28;;;13.48;58.81
12949;BME280;6539;49.476;8.484;2023-04-19T02:10:04;101176.34;;;13.53;59.31
12949;BME280;6539;49.476;8.484;2023-04-19T02:12:35;101167.69;;;13.51;58.90
12949;BME280;6539;49.476;8.484;2023-04-19T02:15:03;101161.78;;;13.49;58.70
12949;BME280;6539;49.476;8.484;2023-04-19T02:17:29;101167.34;;;13.45;58.99
12949;BME280;6539;49.476;8.484;2023-04-19T02:19:56;101166.56;;;13.45;59.11
12949;BME280;6539;49.476;8.484;2023-04-19T02:22:21;101166.97;;;13.43;59.05
12949;BME280;6539;49.476;8.484;2023-04-19T02:24:49;101172.88;;;13.42;58.74
12949;BME280;6539;49.476;8.484;2023-04-19T02:27:15;101168.16;;;13.42;59.12
12949;BME280;6539;49.476;8.484;2023-04-19T02:29:41;101164.22;;;13.40;59.07
12949;BME280;6539;49.476;8.484;2023-04-19T02:32:07;101166.19;;;13.43;59.28
12949;BME280;6539;49.476;8.484;2023-04-19T02:34:34;101166.56;;;13.41;59.11
12949;BME280;6539;49.476;8.484;2023-04-19T02:37:00;101166.19;;;13.43;58.94
12949;BME280;6539;49.476;8.484;2023-04-19T02:39:26;101163.81;;;13.41;58.82
12949;BME280;6539;49.476;8.484;2023-04-19T02:41:55;101156.34;;;13.38;59.00
12949;BME280;6539;49.476;8.484;2023-04-19T02:44:21;101156.34;;;13.38;59.18
12949;BME280;6539;49.476;8.484;2023-04-19T02:46:51;101152.38;;;13.43;59.26
12949;BME280;6539;49.476;8.484;2023-04-19T02:49:19;101158.69;;;13.43;58.93
12949;BME280;6539;49.476;8.484;2023-04-19T02:51:46;101156.34;;;13.38;59.24
12949;BME280;6539;49.476;8.484;2023-04-19T02:54:12;101153.59;;;13.38;59.28
12949;BME280;6539;49.476;8.484;2023-04-19T02:56:38;101149.63;;;13.43;59.06
12949;BME280;6539;49.476;8.484;2023-04-19T02:59:05;101146.03;;;13.46;59.18
12949;BME280;6539;49.476;8.484;2023-04-19T03:01:31;101143.69;;;13.44;58.94
12949;BME280;6539;49.476;8.484;2023-04-19T03:03:57;101155.16;;;13.39;59.00
12949;BME280;6539;49.476;8.484;2023-04-19T03:06:25;101156.41;;;13.35;59.31
12949;BME280;6539;49.476;8.484;2023-04-19T03:08:53;101157.16;;;13.35;59.04
12949;BME280;6539;49.476;8.484;2023-04-19T03:11:22;101152.81;;;13.38;59.36
12949;BME280;6539;49.476;8.484;2023-04-19T03:13:47;101148.88;;;13.39;59.38
12949;BME280;6539;49.476;8.484;2023-04-19T03:16:13;101148.09;;;13.38;59.55
12949;BME280;6539;49.476;8.484;2023-04-19T03:18:39;101135.47;;;13.37;59.29
12949;BME280;6539;49.476;8.484;2023-04-19T03:21:05;101134.72;;;13.33;59.12
12949;BME280;6539;49.476;8.484;2023-04-19T03:23:33;101133.94;;;13.33;59.10
12949;BME280;6539;49.476;8.484;2023-04-19T03:25:59;101132.41;;;13.28;59.33
12949;BME280;6539;49.476;8.484;2023-04-19T03:28:27;101139.47;;;13.29;59.41
12949;BME280;6539;49.476;8.484;2023-04-19T03:30:55;101134.75;;;13.26;59.60
12949;BME280;6539;49.476;8.484;2023-04-19T03:33:21;101134.75;;;13.26;59.72
12949;BME280;6539;49.476;8.484;2023-04-19T03:35:47;101129.66;;;13.28;59.37
12949;BME280;6539;49.476;8.484;2023-04-19T03:38:18;101117.06;;;13.24;59.75
12949;BME280;6539;49.476;8.484;2023-04-19T03:40:49;101115.47;;;13.26;59.58
12949;BME280;6539;49.476;8.484;2023-04-19T03:43:15;101116.28;;;13.23;59.78
12949;BME280;6539;49.476;8.484;2023-04-19T03:45:43;101119.84;;;13.24;59.68
12949;BME280;6539;49.476;8.484;2023-04-19T03:48:09;101110.78;;;13.23;59.63
12949;BME280;6539;49.476;8.484;2023-04-19T03:50:37;101110.03;;;13.19;59.81
12949;BME280;6539;49.476;8.484;2023-04-19T03:53:06;101115.16;;;13.14;59.82
12949;BME280;6539;49.476;8.484;2023-04-19T03:55:34;101106.91;;;13.14;60.19
12949;BME280;6539;49.476;8.484;2023-04-19T03:58:00;101104.19;;;13.10;60.28
12949;BME280;6539;49.476;8.484;2023-04-19T04:00:25;101100.63;;;13.13;60.08
12949;BME280;6539;49.476;8.484;2023-04-19T04:02:54;101117.16;;;13.13;60.23
12949;BME280;6539;49.476;8.484;2023-04-19T04:05:20;101114.41;;;13.13;60.16
12949;BME280;6539;49.476;8.484;2023-04-19T04:07:45;101112.41;;;13.14;60.03
12949;BME280;6539;49.476;8.484;2023-04-19T04:10:13;101118.31;;;13.16;59.86
12949;BME280;6539;49.476;8.484;2023-04-19T04:12:40;101115.53;;;13.19;59.91
12949;BME280;6539;49.476;8.484;2023-04-19T04:15:06;101117.88;;;13.21;59.78
12949;BME280;6539;49.476;8.484;2023-04-19T04:17:34;101117.50;;;13.19;59.86
12949;BME280;6539;49.476;8.484;2023-04-19T04:20:00;101110.81;;;13.20;60.39
12949;BME280;6539;49.476;8.484;2023-04-19T04:22:28;101121.44;;;13.21;59.99
12949;BME280;6539;49.476;8.484;2023-04-19T04:24:56;101118.25;;;13.23;60.01
12949;BME280;6539;49.476;8.484;2023-04-19T04:27:25;101120.22;;;13.22;59.76
12949;BME280;6539;49.476;8.484;2023-04-19T04:29:52;101118.22;;;13.26;60.02
12949;BME280;6539;49.476;8.484;2023-04-19T04:32:21;101126.50;;;13.26;59.56
12949;BME280;6539;49.476;8.484;2023-04-19T04:34:50;101127.31;;;13.23;59.89
12949;BME280;6539;49.476;8.484;2023-04-19T04:37:15;101134.00;;;13.22;59.54
12949;BME280;6539;49.476;8.484;2023-04-19T04:39:42;101132.84;;;13.23;59.61
12949;BME280;6539;49.476;8.484;2023-04-19T04:42:10;101135.22;;;13.21;59.65
12949;BME280;6539;49.476;8.484;2023-04-19T04:44:39;101127.34;;;13.20;59.75
12949;BME280;6539;49.476;8.484;2023-04-19T04:47:05;101134.47;;;13.17;59.62
12949;BME280;6539;49.476;8.484;2023-04-19T04:49:31;101136.00;;;13.18;59.79
12949;BME280;6539;49.476;8.484;2023-04-19T04:51:57;101135.63;;;13.20;60.13
12949;BME280;6539;49.476;8.484;2023-04-19T04:54:26;101133.25;;;13.18;59.74
12949;BME280;6539;49.476;8.484;2023-04-19T04:56:54;101131.31;;;13.15;60.24
12949;BME280;6539;49.476;8.484;2023-04-19T04:59:20;101134.47;;;13.17;59.91
12949;BME280;6539;49.476;8.484;2023-04-19T05:01:48;101132.06;;;13.19;60.21
12949;BME280;6539;49.476;8.484;2023-04-19T05:04:18;101130.88;;;13.20;59.91
12949;BME280;6539;49.476;8.484;2023-04-19T05:06:44;101136.00;;;13.18;60.50
12949;BME280;6539;49.476;8.484;2023-04-19T05:09:10;101134.47;;;13.17;60.14
12949;BME280;6539;49.476;8.484;2023-04-19T05:11:36;101136.00;;;13.22;60.32
12949;BME280;6539;49.476;8.484;2023-04-19T05:14:05;101134.38;;;13.24;60.24
12949;BME280;6539;49.476;8.484;2023-04-19T05:16:34;101140.69;;;13.25;59.95
12949;BME280;6539;49.476;8.484;2023-04-19T05:19:02;101146.16;;;13.32;60.12
12949;BME280;6539;49.476;8.484;2023-04-19T05:21:28;101140.66;;;13.32;60.18
12949;BME280;6539;49.476;8.484;2023-04-19T05:23:53;101137.84;;;13.35;60.01
12949;BME280;6539;49.476;8.484;2023-04-19T05:26:24;101137.06;;;13.38;60.01
12949;BME280;6539;49.476;8.484;2023-04-19T05:28:50;101138.97;;;13.41;59.72
12949;BME280;6539;49.476;8.484;2023-04-19T05:31:23;101134.53;;;13.54;62.28
12949;BME280;6539;49.476;8.484;2023-04-19T05:33:48;101135.22;;;13.65;61.03
12949;BME280;6539;49.476;8.484;2023-04-19T05:36:14;101145.06;;;13.70;59.68
12949;BME280;6539;49.476;8.484;2023-04-19T05:38:43;101132.41;;;13.72;59.34
12949;BME280;6539;49.476;8.484;2023-04-19T05:41:12;101136.19;;;13.89;60.72
12949;BME280;6539;49.476;8.484;2023-04-19T05:43:38;101138.19;;;13.85;58.80
12949;BME280;6539;49.476;8.484;2023-04-19T05:46:06;101136.25;;;13.86;60.78
12949;BME280;6539;49.476;8.484;2023-04-19T05:48:32;101138.41;;;14.05;63.91
12949;BME280;6539;49.476;8.484;2023-04-19T05:50:58;101137.25;;;14.02;59.82
12949;BME280;6539;49.476;8.484;2023-04-19T05:53:29;101133.88;;;14.21;58.17
12949;BME280;6539;49.476;8.484;2023-04-19T05:55:59;101135.31;;;14.67;56.72
12949;BME280;6539;49.476;8.484;2023-04-19T05:58:25;101133.94;;;15.08;55.77
12949;BME280;6539;49.476;8.484;2023-04-19T06:00:51;101138.09;;;15.47;53.97
12949;BME280;6539;49.476;8.484;2023-04-19T06:03:17;101137.19;;;15.99;53.61
12949;BME280;6539;49.476;8.484;2023-04-19T06:05:45;101135.22;;;16.39;51.87
12949;BME280;6539;49.476;8.484;2023-04-19T06:08:11;101131.88;;;16.67;50.49
12949;BME280;6539;49.476;8.484;2023-04-19T06:10:36;101131.97;;;17.00;50.00
12949;BME280;6539;49.476;8.484;2023-04-19T06:13:02;101134.16;;;17.24;48.79
12949;BME280;6539;49.476;8.484;2023-04-19T06:15:33;101137.56;;;17.48;47.95
12949;BME280;6539;49.476;8.484;2023-04-19T06:18:04;101138.06;;;17.43;47.67
12949;BME280;6539;49.476;8.484;2023-04-19T06:20:38;101145.97;;;17.28;47.88
12949;BME280;6539;49.476;8.484;2023-04-19T06:23:05;101143.81;;;16.84;48.85
12949;BME280;6539;49.476;8.484;2023-04-19T06:25:31;101144.31;;;16.40;49.85
12949;BME280;6539;49.476;8.484;2023-04-19T06:27:57;101150.50;;;16.08;51.15
12949;BME280;6539;49.476;8.484;2023-04-19T06:30:22;101139.13;;;15.79;51.87
12949;BME280;6539;49.476;8.484;2023-04-19T06:32:48;101148.28;;;15.53;52.88
12949;BME280;6539;49.476;8.484;2023-04-19T06:35:16;101135.91;;;15.35;53.43
12949;BME280;6539;49.476;8.484;2023-04-19T06:37:44;101141.09;;;15.33;53.79
12949;BME280;6539;49.476;8.484;2023-04-19T06:40:10;101134.47;;;15.26;54.15
12949;BME280;6539;49.476;8.484;2023-04-19T06:42:37;101129.53;;;15.38;54.10
12949;BME280;6539;49.476;8.484;2023-04-19T06:45:04;101137.34;;;15.43;53.87
12949;BME280;6539;49.476;8.484;2023-04-19T06:47:34;101125.13;;;15.67;53.37
12949;BME280;6539;49.476;8.484;2023-04-19T06:50:00;101127.03;;;15.93;52.96
12949;BME280;6539;49.476;8.484;2023-04-19T06:52:25;101119.69;;;16.26;52.31
12949;BME280;6539;49.476;8.484;2023-04-19T06:54:51;101118.47;;;16.66;50.83
12949;BME280;6539;49.476;8.484;2023-04-19T06:57:24;101122.09;;;16.99;50.58
12949;BME280;6539;49.476;8.484;2023-04-19T06:59:54;101112.56;;;17.80;48.45
12949;BME280;6539;49.476;8.484;2023-04-19T07:02:20;101110.47;;;18.13;46.70
12949;BME280;6539;49.476;8.484;2023-04-19T07:04:46;101115.53;;;18.31;46.11
12949;BME280;6539;49.476;8.484;2023-04-19T07:07:12;101125.97;;;18.68;45.71
12949;BME280;6539;49.476;8.484;2023-04-19T07:09:40;101126.00;;;19.18;44.05
12949;BME280;6539;49.476;8.484;2023-04-19T07:12:06;101122.53;;;19.64;43.20
12949;BME280;6539;49.476;8.484;2023-04-19T07:14:35;101115.78;;;20.09;42.31
12949;BME280;6539;49.476;8.484;2023-04-19T07:17:03;101107.91;;;20.29;41.46
12949;BME280;6539;49.476;8.484;2023-04-19T07:19:33;101110.31;;;20.39;41.17
12949;BME280;6539;49.476;8.484;2023-04-19T07:22:00;101115.22;;;20.14;40.74
12949;BME280;6539;49.476;8.484;2023-04-19T07:24:28;101117.09;;;19.48;42.08
12949;BME280;6539;49.476;8.484;2023-04-19T07:26:55;101109.53;;;18.61;44.23
12949;BME280;6539;49.476;8.484;2023-04-19T07:29:20;101098.88;;;18.02;45.97
12949;BME280;6539;49.476;8.484;2023-04-19T07:31:46;101113.78;;;17.63;46.85
12949;BME280;6539;49.476;8.484;2023-04-19T07:34:12;101115.34;;;17.32;48.04
12949;BME280;6539;49.476;8.484;2023-04-19T07:36:40;101110.22;;;16.98;49.25
12949;BME280;6539;49.476;8.484;2023-04-19T07:39:08;101103.06;;;16.81;49.83
12949;BME280;6539;49.476;8.484;2023-04-19T07:41:34;101116.47;;;16.66;50.84
12949;BME280;6539;49.476;8.484;2023-04-19T07:44:00;101114.19;;;16.42;51.33
12949;BME280;6539;49.476;8.484;2023-04-19T07:46:26;101108.16;;;16.27;52.04
12949;BME280;6539;49.476;8.484;2023-04-19T07:48:54;101103.66;;;16.14;52.60
12949;BME280;6539;49.476;8.484;2023-04-19T07:51:22;101119.34;;;16.00;52.91
12949;BME280;6539;49.476;8.484;2023-04-19T07:53:49;101111.22;;;15.93;53.37
12949;BME280;6539;49.476;8.484;2023-04-19T07:56:15;101108.25;;;15.81;53.75
12949;BME280;6539;49.476;8.484;2023-04-19T07:58:40;101106.34;;;15.78;53.88
12949;BME280;6539;49.476;8.484;2023-04-19T08:01:11;101096.63;;;15.70;54.33
12949;BME280;6539;49.476;8.484;2023-04-19T08:03:40;101102.19;;;15.66;54.69
12949;BME280;6539;49.476;8.484;2023-04-19T08:06:06;101094.88;;;15.56;54.74
12949;BME280;6539;49.476;8.484;2023-04-19T08:08:35;101095.78;;;15.50;54.92
12949;BME280;6539;49.476;8.484;2023-04-19T08:11:03;101091.75;;;15.54;54.79
12949;BME280;6539;49.476;8.484;2023-04-19T08:13:29;101087.09;;;15.48;54.44
12949;BME280;6539;49.476;8.484;2023-04-19T08:15:57;101080.31;;;15.52;54.34
12949;BME280;6539;49.476;8.484;2023-04-19T08:18:23;101086.84;;;15.62;54.36
12949;BME280;6539;49.476;8.484;2023-04-19T08:20:49;101094.56;;;15.74;54.27
12949;BME280;6539;49.476;8.484;2023-04-19T08:23:17;101088.72;;;15.68;54.17
12949;BME280;6539;49.476;8.484;2023-04-19T08:25:43;101080.84;;;15.67;54.42
12949;BME280;6539;49.476;8.484;2023-04-19T08:28:09;101085.53;;;15.70;54.67
12949;BME280;6539;49.476;8.484;2023-04-19T08:30:37;101083.53;;;15.70;54.53
12949;BME280;6539;49.476;8.484;2023-04-19T08:33:03;101089.03;;;15.74;54.84
12949;BME280;6539;49.476;8.484;2023-04-19T08:35:29;101080.75;;;15.70;55.22
12949;BME280;6539;49.476;8.484;2023-04-19T08:37:57;101079.22;;;15.69;55.50
12949;BME280;6539;49.476;8.484;2023-04-19T08:40:23;101083.13;;;15.72;55.76
12949;BME280;6539;49.476;8.484;2023-04-19T08:42:49;101078.44;;;15.69;55.70
12949;BME280;6539;49.476;8.484;2023-04-19T08:45:20;101082.97;;;15.79;55.67
12949;BME280;6539;49.476;8.484;2023-04-19T08:47:48;101083.63;;;15.86;55.51
12949;BME280;6539;49.476;8.484;2023-04-19T08:50:15;101076.81;;;15.91;55.23
12949;BME280;6539;49.476;8.484;2023-04-19T08:52:45;101076.31;;;15.96;54.75
12949;BME280;6539;49.476;8.484;2023-04-19T08:55:12;101069.44;;;16.04;55.09
12949;BME280;6539;49.476;8.484;2023-04-19T08:57:40;101074.56;;;16.25;54.61
12949;BME280;6539;49.476;8.484;2023-04-19T09:00:07;101066.06;;;16.52;54.04
12949;BME280;6539;49.476;8.484;2023-04-19T09:02:50;101064.16;;;16.68;52.95
12949;BME280;6539;49.476;8.484;2023-04-19T09:05:18;101064.59;;;16.83;52.54
12949;BME280;6539;49.476;8.484;2023-04-19T09:07:45;101056.28;;;16.83;52.23
12949;BME280;6539;49.476;8.484;2023-04-19T09:10:19;101052.22;;;16.88;52.54
12949;BME280;6539;49.476;8.484;2023-04-19T09:13:04;101059.84;;;16.84;52.34
12949;BME280;6539;49.476;8.484;2023-04-19T09:15:40;101051.50;;;16.84;52.10
12949;BME280;6539;49.476;8.484;2023-04-19T09:18:09;101046.47;;;16.78;52.01
12949;BME280;6539;49.476;8.484;2023-04-19T09:20:41;101050.88;;;16.76;52.38
12949;BME280;6539;49.476;8.484;2023-04-19T09:23:13;101045.53;;;16.69;52.75
12949;BME280;6539;49.476;8.484;2023-04-19T09:26:01;101042.63;;;16.56;52.97
12949;BME280;6539;49.476;8.484;2023-04-19T09:28:30;101039.94;;;16.53;53.21
12949;BME280;6539;49.476;8.484;2023-04-19T09:30:57;101034.16;;;16.44;53.31
12949;BME280;6539;49.476;8.484;2023-04-19T09:33:34;101030.19;;;16.45;53.49
12949;BME280;6539;49.476;8.484;2023-04-19T09:36:04;101026.91;;;16.50;53.10
12949;BME280;6539;49.476;8.484;2023-04-19T09:38:45;101029.41;;;16.44;52.96
12949;BME280;6539;49.476;8.484;2023-04-19T09:41:11;101027.75;;;16.47;53.15
12949;BME280;6539;49.476;8.484;2023-04-19T09:43:39;101028.97;;;16.46;53.01
12949;BME280;6539;49.476;8.484;2023-04-19T09:46:07;101025.06;;;16.43;52.76
12949;BME280;6539;49.476;8.484;2023-04-19T09:48:35;101029.91;;;16.39;53.19
12949;BME280;6539;49.476;8.484;2023-04-19T09:51:01;101020.09;;;16.35;53.17
12949;BME280;6539;49.476;8.484;2023-04-19T09:53:29;101019.34;;;16.34;53.56
12949;BME280;6539;49.476;8.484;2023-04-19T09:56:01;101021.69;;;16.36;52.91
12949;BME280;6539;49.476;8.484;2023-04-19T09:58:27;101012.88;;;16.41;53.18
12949;BME280;6539;49.476;8.484;2023-04-19T10:00:54;101011.13;;;16.47;52.79
12949;BME280;6539;49.476;8.484;2023-04-19T10:03:21;101009.16;;;16.47;52.65
12949;BME280;6539;49.476;8.484;2023-04-19T10:05:53;101009.50;;;16.49;52.75
12949;BME280;6539;49.476;8.484;2023-04-19T10:08:19;101006.38;;;16.47;52.66
12949;BME280;6539;49.476;8.484;2023-04-19T10:10:48;101000.91;;;16.44;52.70
12949;BME280;6539;49.476;8.484;2023-04-19T10:13:19;101009.66;;;16.42;52.31
12949;BME280;6539;49.476;8.484;2023-04-19T10:15:52;101010.25;;;16.34;52.23
12949;BME280;6539;49.476;8.484;2023-04-19T10:18:22;101009.25;;;16.24;52.36
12949;BME280;6539;49.476;8.484;2023-04-19T10:20:54;101019.16;;;16.06;53.17
12949;BME280;6539;49.476;8.484;2023-04-19T10:23:22;101005.03;;;16.00;53.44
12949;BME280;6539;49.476;8.484;2023-04-19T10:25:57;101005.09;;;15.96;53.17
12949;BME280;6539;49.476;8.484;2023-04-19T10:28:27;101008.34;;;15.91;53.52
12949;BME280;6539;49.476;8.484;2023-04-19T10:30:59;101000.91;;;15.88;53.38
12949;BME280;6539;49.476;8.484;2023-04-19T10:33:29;101004.53;;;15.85;53.57
12949;BME280;6539;49.476;8.484;2023-04-19T10:36:00;101004.53;;;15.85;53.67
12949;BME280;6539;49.476;8.484;2023-04-19T10:38:49;101002.31;;;15.77;53.51
12949;BME280;6539;49.476;8.484;2023-04-19T10:41:20;100997.00;;;15.66;53.58
12949;BME280;6539;49.476;8.484;2023-04-19T10:44:08;100999.97;;;15.56;53.69
12949;BME280;6539;49.476;8.484;2023-04-19T10:46:38;100998.00;;;15.56;53.72
12949;BME280;6539;49.476;8.484;2023-04-19T10:49:09;100985.44;;;15.52;53.46
12949;BME280;6539;49.476;8.484;2023-04-19T10:51:39;100990.19;;;15.51;53.50
12949;BME280;6539;49.476;8.484;2023-04-19T10:54:31;100995.78;;;15.48;53.54
12949;BME280;6539;49.476;8.484;2023-04-19T10:57:07;100987.84;;;15.50;53.01
12949;BME280;6539;49.476;8.484;2023-04-19T10:59:38;100977.47;;;15.54;52.91
12949;BME280;6539;49.476;8.484;2023-04-19T11:02:26;100969.88;;;15.58;52.99
12949;BME280;6539;49.476;8.484;2023-04-19T11:07:23;100954.78;;;15.82;51.97
12949;BME280;6539;49.476;8.484;2023-04-19T11:09:49;100958.41;;;16.15;50.90
12949;BME280;6539;49.476;8.484;2023-04-19T11:12:19;100957.69;;;16.46;49.85
12949;BME280;6539;49.476;8.484;2023-04-19T11:14:58;100944.38;;;16.73;48.72
12949;BME280;6539;49.476;8.484;2023-04-19T11:17:29;100947.31;;;16.99;48.45
12949;BME280;6539;49.476;8.484;2023-04-19T11:20:08;100938.78;;;17.22;47.19
12949;BME280;6539;49.476;8.484;2023-04-19T11:22:40;100932.59;;;17.30;46.49
12949;BME280;6539;49.476;8.484;2023-04-19T11:27:52;100924.31;;;17.43;45.69
12949;BME280;6539;49.476;8.484;2023-04-19T11:30:20;100929.78;;;17.46;45.69
12949;BME280;6539;49.476;8.484;2023-04-19T11:32:56;100917.56;;;17.44;45.45
12949;BME280;6539;49.476;8.484;2023-04-19T11:35:26;100913.66;;;17.41;45.16
12949;BME280;6539;49.476;8.484;2023-04-19T11:37:54;100910.28;;;17.50;44.80
12949;BME280;6539;49.476;8.484;2023-04-19T11:40:24;100908.31;;;17.63;44.73
12949;BME280;6539;49.476;8.484;2023-04-19T11:42:58;100894.88;;;17.74;43.95
12949;BME280;6539;49.476;8.484;2023-04-19T11:45:34;100901.75;;;17.70;43.08
12949;BME280;6539;49.476;8.484;2023-04-19T11:48:16;100897.66;;;17.74;42.55
12949;BME280;6539;49.476;8.484;2023-04-19T11:50:43;100897.09;;;17.67;42.52
12949;BME280;6539;49.476;8.484;2023-04-19T11:53:20;100897.84;;;17.55;42.77
12949;BME280;6539;49.476;8.484;2023-04-19T11:56:03;100893.59;;;17.50;42.74
12949;BME280;6539;49.476;8.484;2023-04-19T11:58:45;100886.06;;;17.50;42.75
12949;BME280;6539;49.476;8.484;2023-04-19T12:01:19;100878.06;;;17.52;42.41
12949;BME280;6539;49.476;8.484;2023-04-19T12:06:29;100874.59;;;17.48;42.40
12949;BME280;6539;49.476;8.484;2023-04-19T12:08:57;100875.47;;;17.45;42.33
12949;BME280;6539;49.476;8.484;2023-04-19T12:11:44;100884.06;;;17.51;42.63
12949;BME280;6539;49.476;8.484;2023-04-19T12:14:14;100874.50;;;17.52;42.17
12949;BME280;6539;49.476;8.484;2023-04-19T12:16:40;100869.75;;;17.52;42.11
12949;BME280;6539;49.476;8.484;2023-04-19T12:19:17;100864.53;;;17.55;42.25
12949;BME280;6539;49.476;8.484;2023-04-19T12:21:47;100860.19;;;17.53;41.98
12949;BME280;6539;49.476;8.484;2023-04-19T12:24:15;100850.97;;;17.57;41.71
12949;BME280;6539;49.476;8.484;2023-04-19T12:26:55;100848.41;;;17.62;41.04
12949;BME280;6539;49.476;8.484;2023-04-19T12:29:26;100853.22;;;17.62;39.83
12949;BME280;6539;49.476;8.484;2023-04-19T12:31:54;100845.88;;;17.68;39.69
12949;BME280;6539;49.476;8.484;2023-04-19T12:34:20;100851.66;;;17.73;39.09
12949;BME280;6539;49.476;8.484;2023-04-19T12:36:48;100842.91;;;17.87;38.89
12949;BME280;6539;49.476;8.484;2023-04-19T12:39:14;100841.69;;;18.13;38.39
12949;BME280;6539;49.476;8.484;2023-04-19T12:41:42;100828.88;;;18.28;37.49
12949;BME280;6539;49.476;8.484;2023-04-19T12:44:08;100822.19;;;18.39;36.85
12949;BME280;6539;49.476;8.484;2023-04-19T12:46:34;100826.53;;;18.52;36.43
12949;BME280;6539;49.476;8.484;2023-04-19T12:49:01;100830.09;;;18.74;36.31
12949;BME280;6539;49.476;8.484;2023-04-19T12:51:26;100820.94;;;18.86;36.08
12949;BME280;6539;49.476;8.484;2023-04-19T12:53:53;100814.69;;;18.95;36.04
12949;BME280;6539;49.476;8.484;2023-04-19T12:56:19;100814.88;;;19.00;35.69
12949;BME280;6539;49.476;8.484;2023-04-19T12:58:47;100806.25;;;19.08;35.87
12949;BME280;6539;49.476;8.484;2023-04-19T13:01:18;100812.59;;;19.30;35.10
12949;BME280;6539;49.476;8.484;2023-04-19T13:03:46;100796.97;;;19.32;34.37
12949;BME280;6539;49.476;8.484;2023-04-19T13:06:11;100797.25;;;19.25;33.93
12949;BME280;6539;49.476;8.484;2023-04-19T13:08:39;100798.56;;;19.12;34.00
12949;BME280;6539;49.476;8.484;2023-04-19T13:11:11;100791.25;;;19.05;34.12
12949;BME280;6539;49.476;8.484;2023-04-19T13:13:41;100791.44;;;19.11;34.29
12949;BME280;6539;49.476;8.484;2023-04-19T13:16:07;100771.88;;;19.23;33.88